Time;durP1;ratioP1;P1;durP2;ratioP2;P2;SDS_P1;SDS_P2;PMS_P1;PMS_P2;Temp;Humidity;BMP_temperature;BMP_pressure;BME280_temperature;BME280_humidity;BME280_pressure;Samples;Min_cycle;Max_cycle;Signal;HPM_P1;HPM_P2
2022/07/01 00:01:41;;;;;;;0.10;0.10;;;;;;;22.40;53.04;101131.09;5129146;28;20144;-41
2022/07/01 00:04:07;;;;;;;0.10;0.10;;;;;;;22.41;53.04;101121.63;5110880;28;20047;-40
2022/07/01 00:06:33;;;;;;;0.10;0.10;;;;;;;22.40;52.95;101114.44;5110081;27;20042;-39
2022/07/01 00:08:59;;;;;;;0.10;0.10;;;;;;;22.41;53.29;101124.41;5128482;27;20453;-39
2022/07/01 00:11:24;;;;;;;0.10;0.10;;;;;;;22.40;53.17;101126.34;5110206;27;20505;-39
2022/07/01 00:13:50;;;;;;;0.10;0.10;;;;;;;22.40;52.97;101115.25;5128995;28;20081;-41
2022/07/01 00:16:16;;;;;;;0.10;0.10;;;;;;;22.40;53.18;101119.97;5129176;27;20050;-40
2022/07/01 00:18:42;;;;;;;0.10;0.10;;;;;;;22.40;52.93;101122.75;5127405;27;20473;-38
2022/07/01 00:21:07;;;;;;;0.10;0.10;;;;;;;22.40;53.33;101131.91;5130187;27;20065;-39
2022/07/01 00:23:40;;;;;;;0.10;0.10;;;;;;;22.40;52.96;101139.41;5133749;27;20035;-40
2022/07/01 00:26:06;;;;;;;0.10;0.10;;;;;;;22.41;53.36;101129.94;5132916;27;20085;-38
2022/07/01 00:28:32;;;;;;;0.10;0.10;;;;;;;22.40;52.93;101137.47;5112997;28;20043;-39
2022/07/01 00:30:57;;;;;;;0.10;0.10;;;;;;;22.41;52.88;101135.50;5131953;28;20047;-39
2022/07/01 00:33:23;;;;;;;0.10;0.10;;;;;;;22.39;53.45;101146.91;5134631;27;20725;-40
2022/07/01 00:35:49;;;;;;;0.10;0.10;;;;;;;22.40;53.13;101136.63;5131216;28;20039;-40
2022/07/01 00:38:14;;;;;;;0.10;0.10;;;;;;;22.39;53.02;101137.75;5130930;27;20043;-39
2022/07/01 00:40:40;;;;;;;0.10;0.10;;;;;;;22.39;53.21;101146.09;5132950;28;20035;-40
2022/07/01 00:43:06;;;;;;;0.10;0.10;;;;;;;22.38;53.09;101150.81;5131683;28;20134;-39
2022/07/01 00:45:31;;;;;;;0.10;0.10;;;;;;;22.39;52.93;101152.47;5132870;27;20046;-39
2022/07/01 00:47:57;;;;;;;0.10;0.10;;;;;;;22.38;53.11;101148.03;5129672;27;20039;-39
2022/07/01 00:50:23;;;;;;;0.10;0.10;;;;;;;22.39;53.42;101159.97;5131823;27;20047;-40
2022/07/01 00:52:48;;;;;;;0.10;0.10;;;;;;;22.40;53.38;101162.44;5131745;28;20058;-39
2022/07/01 00:55:15;;;;;;;0.10;0.10;;;;;;;22.40;53.21;101156.06;5133609;27;20039;-39
2022/07/01 00:57:42;;;;;;;0.10;0.10;;;;;;;22.39;53.11;101160.78;5131531;27;20401;-39
2022/07/01 01:00:11;;;;;;;0.10;0.10;;;;;;;22.37;53.39;101160.28;5113504;28;20043;-40
2022/07/01 01:02:37;;;;;;;0.10;0.10;;;;;;;22.39;53.17;101158.00;5116785;27;20085;-38
2022/07/01 01:05:04;;;;;;;0.10;0.10;;;;;;;22.38;53.20;101159.13;5131473;28;20051;-38
2022/07/01 01:07:31;;;;;;;0.10;0.10;;;;;;;22.39;53.09;101168.28;5112841;28;20070;-41
2022/07/01 01:09:56;;;;;;;0.10;0.10;;;;;;;22.38;53.11;101164.69;5096210;28;20073;-38
2022/07/01 01:12:24;;;;;;;0.10;0.10;;;;;;;22.39;53.18;101173.84;5131714;27;20043;-39
2022/07/01 01:14:50;;;;;;;0.10;0.10;;;;;;;22.39;53.31;101171.88;5133239;27;20093;-39
2022/07/01 01:17:17;;;;;;;0.10;0.10;;;;;;;22.39;52.91;101176.63;5128675;27;20466;-39
2022/07/01 01:19:43;;;;;;;0.10;0.10;;;;;;;22.38;52.95;101184.13;5132025;27;20492;-38
2022/07/01 01:22:09;;;;;;;0.10;0.10;;;;;;;22.39;52.95;101196.03;5113763;28;20078;-40
2022/07/01 01:24:36;;;;;;;0.10;0.10;;;;;;;22.38;53.27;101191.63;5113401;28;20047;-39
2022/07/01 01:27:04;;;;;;;0.10;0.10;;;;;;;22.39;53.28;101194.09;5129314;28;20051;-39
2022/07/01 01:29:30;;;;;;;0.10;0.10;;;;;;;22.38;53.22;101188.84;5113592;27;20188;-38
2022/07/01 01:31:55;;;;;;;0.10;0.10;;;;;;;22.37;53.07;101185.25;5133544;27;20050;-39
2022/07/01 01:34:21;;;;;;;0.10;0.10;;;;;;;22.38;52.77;101198.00;5132540;27;20043;-40
2022/07/01 01:36:47;;;;;;;0.10;0.10;;;;;;;22.37;53.22;101190.78;5130027;28;20046;-39
2022/07/01 01:39:15;;;;;;;0.10;0.10;;;;;;;22.38;53.01;101194.41;5131426;27;20149;-39
2022/07/01 01:41:42;;;;;;;0.20;0.20;;;;;;;22.39;53.27;101204.38;5112481;28;20085;-38
2022/07/01 01:44:07;;;;;;;0.10;0.10;;;;;;;22.40;53.08;101208.78;5129712;27;20075;-41
2022/07/01 01:46:34;;;;;;;0.10;0.10;;;;;;;22.37;52.99;101207.44;5129913;28;20046;-40
2022/07/01 01:49:00;;;;;;;0.10;0.10;;;;;;;22.39;53.04;101205.19;5113639;28;20062;-40
2022/07/01 01:51:27;;;;;;;0.10;0.10;;;;;;;22.38;53.06;101202.72;5112705;28;20070;-39
2022/07/01 01:53:52;;;;;;;0.10;0.10;;;;;;;22.38;52.92;101192.44;5132667;27;20054;-39
2022/07/01 01:56:18;;;;;;;0.10;0.10;;;;;;;22.39;53.14;101185.75;5102853;28;20043;-40
2022/07/01 01:58:44;;;;;;;0.10;0.10;;;;;;;22.39;52.95;101196.03;5112265;28;20043;-40
2022/07/01 02:01:11;;;;;;;0.10;0.10;;;;;;;22.38;53.15;101203.53;5130278;28;20374;-39
2022/07/01 02:03:38;;;;;;;0.10;0.10;;;;;;;22.37;52.83;101199.13;5112231;28;20485;-38
2022/07/01 02:06:05;;;;;;;0.10;0.10;;;;;;;22.38;53.13;101197.16;5094833;28;20054;-39
2022/07/01 02:08:31;;;;;;;0.10;0.10;;;;;;;22.38;53.17;101202.72;5133862;27;20474;-39
2022/07/01 02:10:57;;;;;;;0.10;0.10;;;;;;;22.37;53.12;101203.84;5130494;28;20043;-39
2022/07/01 02:13:28;;;;;;;0.10;0.10;;;;;;;22.36;52.97;101197.44;5112051;28;20047;-39
2022/07/01 02:15:54;;;;;;;0.10;0.10;;;;;;;22.37;53.16;101198.28;5112876;28;20051;-40
2022/07/01 02:18:19;;;;;;;0.10;0.10;;;;;;;22.37;52.94;101204.66;5129482;28;20047;-39
2022/07/01 02:20:45;;;;;;;0.10;0.10;;;;;;;22.37;52.81;101210.22;5131137;28;20039;-39
2022/07/01 02:23:11;;;;;;;0.10;0.10;;;;;;;22.36;52.89;101205.75;5130550;27;20051;-41
2022/07/01 02:25:36;;;;;;;0.10;0.10;;;;;;;22.37;52.94;101214.94;5131257;28;20103;-40
2022/07/01 02:28:02;;;;;;;0.10;0.10;;;;;;;22.37;52.80;101212.16;5129313;27;20134;-39
2022/07/01 02:30:28;;;;;;;0.10;0.10;;;;;;;22.37;52.98;101224.09;5112547;28;20050;-39
2022/07/01 02:32:54;;;;;;;0.10;0.10;;;;;;;22.37;53.11;101226.88;5129384;28;20043;-41
2022/07/01 02:35:19;;;;;;;0.10;0.10;;;;;;;22.37;53.28;101226.88;5131887;27;20134;-40
2022/07/01 02:37:45;;;;;;;0.10;0.10;;;;;;;22.37;52.94;101235.19;5130712;27;20046;-40
2022/07/01 02:40:13;;;;;;;0.10;0.10;;;;;;;22.37;53.04;101237.16;5112729;28;20049;-39
2022/07/01 02:42:39;;;;;;;0.10;0.10;;;;;;;22.36;52.87;101239.06;5129365;28;20127;-37
2022/07/01 02:45:06;;;;;;;0.10;0.10;;;;;;;22.37;53.15;101234.38;5093858;28;20325;-39
2022/07/01 02:47:34;;;;;;;0.10;0.10;;;;;;;22.37;53.27;101248.25;5109329;28;20469;-37
2022/07/01 02:50:01;;;;;;;0.10;0.10;;;;;;;22.36;53.30;101244.63;5095883;28;20048;-39
2022/07/01 02:52:27;;;;;;;0.10;0.10;;;;;;;22.37;53.22;101251.03;5111662;28;20084;-39
2022/07/01 02:54:53;;;;;;;0.10;0.10;;;;;;;22.37;53.16;101253.78;5131720;27;20131;-37
2022/07/01 02:57:18;;;;;;;0.10;0.10;;;;;;;22.38;53.40;101269.31;5130239;28;20043;-39
2022/07/01 02:59:44;;;;;;;0.10;0.10;;;;;;;22.37;52.97;101267.66;5131235;27;20045;-38
2022/07/01 03:02:09;;;;;;;0.10;0.10;;;;;;;22.36;53.06;101275.13;5130324;28;20047;-39
2022/07/01 03:04:35;;;;;;;0.10;0.10;;;;;;;22.37;53.16;101267.66;5129315;27;20039;-40
2022/07/01 03:07:01;;;;;;;0.10;0.10;;;;;;;22.36;53.19;101266.81;5129823;27;20046;-40
2022/07/01 03:09:27;;;;;;;0.10;0.10;;;;;;;22.36;53.31;101271.53;5130726;28;20058;-41
2022/07/01 03:11:53;;;;;;;0.10;0.10;;;;;;;22.36;53.30;101275.13;5129219;27;20042;-41
2022/07/01 03:14:18;;;;;;;0.10;0.10;;;;;;;22.36;53.37;101274.31;5129649;28;20035;-39
2022/07/01 03:16:47;;;;;;;0.10;0.10;;;;;;;22.36;53.09;101271.53;5127317;27;20143;-40
2022/07/01 03:19:13;;;;;;;0.10;0.10;;;;;;;22.36;53.27;101277.91;5127546;28;20112;-39
2022/07/01 03:21:38;;;;;;;0.10;0.10;;;;;;;22.35;52.95;101290.13;5130964;28;20130;-41
2022/07/01 03:24:04;;;;;;;0.10;0.10;;;;;;;22.35;53.21;101294.88;5129437;27;20051;-40
2022/07/01 03:26:30;;;;;;;0.10;0.10;;;;;;;22.36;53.31;101300.13;5130819;28;20477;-39
2022/07/01 03:29:03;;;;;;;0.10;0.10;;;;;;;22.35;52.90;101297.63;5129478;27;20051;-39
2022/07/01 03:31:28;;;;;;;0.10;0.10;;;;;;;22.36;52.91;101305.66;5130890;28;20042;-38
2022/07/01 03:33:54;;;;;;;0.10;0.10;;;;;;;22.36;53.06;101304.84;5130020;27;20043;-40
2022/07/01 03:36:20;;;;;;;0.10;0.10;;;;;;;22.36;53.38;101290.97;5132228;27;20040;-39
2022/07/01 03:38:46;;;;;;;0.10;0.10;;;;;;;22.34;53.38;101274.63;5129170;27;20043;-40
2022/07/01 03:41:12;;;;;;;0.10;0.10;;;;;;;22.35;53.23;101267.94;5129414;28;20081;-39
2022/07/01 03:43:37;;;;;;;0.10;0.10;;;;;;;22.35;53.32;101273.50;5130643;27;20039;-40
2022/07/01 03:46:03;;;;;;;0.10;0.10;;;;;;;22.35;53.24;101273.50;5129963;28;20035;-37
2022/07/01 03:48:29;;;;;;;0.10;0.10;;;;;;;22.35;53.32;101283.78;5127639;28;20048;-37
2022/07/01 03:50:54;;;;;;;0.10;0.10;;;;;;;22.34;53.39;101284.91;5130478;28;20458;-37
2022/07/01 03:56:06;;;;;;;0.10;0.10;;;;;;;22.34;53.13;101290.44;5113717;28;20134;-39
2022/07/01 03:58:31;;;;;;;0.10;0.10;;;;;;;22.36;53.30;101290.97;5134057;28;20096;-40
2022/07/01 04:00:58;;;;;;;0.10;0.10;;;;;;;22.35;53.42;101301.25;5133041;28;20358;-40
2022/07/01 04:03:24;;;;;;;0.10;0.10;;;;;;;22.35;53.18;101300.41;5133534;27;20071;-39
2022/07/01 04:05:49;;;;;;;0.10;0.10;;;;;;;22.34;53.31;101301.53;5133394;28;20043;-39
2022/07/01 04:08:15;;;;;;;0.10;0.10;;;;;;;22.36;53.46;101296.50;5132182;27;20397;-40
2022/07/01 04:10:41;;;;;;;0.10;0.10;;;;;;;22.35;53.26;101292.91;5132534;27;20050;-40
2022/07/01 04:13:07;;;;;;;0.10;0.10;;;;;;;22.35;53.35;101300.41;5131615;27;20080;-40
2022/07/01 04:15:52;;;;;;;0.10;0.10;;;;;;;22.35;53.54;101298.47;5117140;28;20047;-40
2022/07/01 04:18:18;;;;;;;0.10;0.10;;;;;;;22.34;53.42;101285.72;5132588;27;20469;-39
2022/07/01 04:22:32;;;;;;;0.10;0.10;;;;;;;22.34;53.22;101285.72;5133910;27;20045;-39
2022/07/01 04:23:30;;;;;;;0.10;0.10;;;;;;;22.35;52.76;101294.88;5117458;28;20070;-40
2022/07/01 04:25:55;;;;;;;0.10;0.10;;;;;;;22.34;53.07;101302.38;5133240;28;20043;-40
2022/07/01 04:28:21;;;;;;;0.10;0.10;;;;;;;22.34;53.50;101296.00;5133478;27;20091;-41
2022/07/01 04:30:47;;;;;;;0.10;0.10;;;;;;;22.34;53.42;101301.53;5132455;27;20442;-39
2022/07/01 04:33:13;;;;;;;0.10;0.10;;;;;;;22.34;53.41;101302.38;5132026;27;20444;-41
2022/07/01 04:35:39;;;;;;;0.10;0.10;;;;;;;22.35;52.95;101304.00;5133148;27;20047;-40
2022/07/01 04:38:05;;;;;;;0.25;0.13;;;;;;;22.34;53.10;101296.81;5132534;27;20043;-38
2022/07/01 04:40:30;;;;;;;0.10;0.10;;;;;;;22.34;52.95;101302.38;5133876;27;20039;-39
2022/07/01 04:42:56;;;;;;;0.10;0.10;;;;;;;22.33;53.42;101292.41;5130662;27;20138;-39
2022/07/01 04:45:21;;;;;;;0.10;0.10;;;;;;;22.33;53.23;101289.63;5132670;27;20232;-40
2022/07/01 04:47:47;;;;;;;0.10;0.10;;;;;;;22.33;53.05;101277.69;5129566;27;20050;-39
2022/07/01 04:50:13;;;;;;;0.10;0.10;;;;;;;22.34;53.10;101288.50;5132856;28;20046;-39
2022/07/01 04:52:38;;;;;;;0.10;0.10;;;;;;;22.33;53.32;101284.06;5132063;28;20281;-40
2022/07/01 04:55:06;;;;;;;0.10;0.10;;;;;;;22.35;53.59;101292.09;5133066;27;20454;-39
2022/07/01 04:57:31;;;;;;;0.10;0.10;;;;;;;22.34;53.21;101298.78;5131570;28;20078;-39
2022/07/01 04:59:57;;;;;;;0.10;0.10;;;;;;;22.34;52.91;101298.78;5132693;28;20039;-41
2022/07/01 05:02:23;;;;;;;0.10;0.10;;;;;;;22.34;53.34;101288.50;5132572;27;20092;-39
2022/07/01 05:04:48;;;;;;;0.10;0.10;;;;;;;22.33;53.03;101294.34;5132370;28;20560;-41
2022/07/01 05:07:29;;;;;;;0.10;0.10;;;;;;;22.33;53.08;101286.84;5131086;27;20129;-40
2022/07/01 05:09:56;;;;;;;0.10;0.10;;;;;;;22.33;53.40;101284.06;5133641;27;20458;-41
2022/07/01 05:12:22;;;;;;;0.10;0.10;;;;;;;22.34;53.50;101274.63;5113211;27;20180;-38
2022/07/01 05:14:49;;;;;;;0.10;0.10;;;;;;;22.33;53.59;101270.19;5095381;27;20147;-41
2022/07/01 05:17:14;;;;;;;0.10;0.10;;;;;;;22.34;53.38;101268.25;5132114;27;20089;-39
2022/07/01 05:22:26;;;;;;;0.10;0.10;;;;;;;22.33;53.40;101263.81;5116730;28;20070;-38
2022/07/01 05:24:51;;;;;;;0.10;0.10;;;;;;;22.34;53.41;101265.47;5131301;27;20043;-39
2022/07/01 05:27:17;;;;;;;0.10;0.10;;;;;;;22.33;53.39;101263.81;5130686;27;20174;-40
2022/07/01 05:29:43;;;;;;;0.10;0.10;;;;;;;22.33;53.22;101261.88;5131976;28;20090;-41
2022/07/01 05:32:08;;;;;;;0.10;0.10;;;;;;;22.32;52.89;101276.84;5112799;28;20043;-41
2022/07/01 05:34:35;;;;;;;0.10;0.10;;;;;;;22.32;53.06;101278.78;5129715;27;20039;-39
2022/07/01 05:37:02;;;;;;;0.10;0.10;;;;;;;22.34;53.23;101279.34;5132609;27;20835;-41
2022/07/01 05:39:27;;;;;;;0.10;0.10;;;;;;;22.32;52.99;101274.06;5132981;27;20036;-39
2022/07/01 05:41:53;;;;;;;0.10;0.10;;;;;;;22.31;53.38;101280.75;5131918;28;20569;-43
2022/07/01 05:44:20;;;;;;;0.10;0.10;;;;;;;22.33;53.31;101286.03;5130834;27;20461;-39
2022/07/01 05:46:45;;;;;;;0.10;0.10;;;;;;;22.31;53.09;101294.63;5129077;27;20085;-39
2022/07/01 05:49:12;;;;;;;0.10;0.10;;;;;;;22.32;52.77;101296.25;5134410;27;20126;-38
2022/07/01 05:51:43;;;;;;;0.10;0.10;;;;;;;22.33;53.35;101305.44;5130086;27;20079;-38
2022/07/01 05:54:09;;;;;;;0.10;0.10;;;;;;;22.32;53.01;101306.53;5131248;27;20047;-39
2022/07/01 05:56:35;;;;;;;0.10;0.10;;;;;;;22.31;52.85;101302.13;5131162;28;20053;-41
2022/07/01 05:59:00;;;;;;;0.10;0.10;;;;;;;22.32;53.15;101301.81;5132168;27;20051;-39
2022/07/01 06:01:26;;;;;;;0.10;0.10;;;;;;;22.33;53.25;101311.81;5130683;28;20043;-39
2022/07/01 06:03:51;;;;;;;0.10;0.10;;;;;;;22.32;52.83;101312.09;5130109;28;20146;-39
2022/07/01 06:06:19;;;;;;;0.10;0.10;;;;;;;22.33;53.05;101308.22;5131581;27;20137;-41
2022/07/01 06:08:45;;;;;;;0.10;0.10;;;;;;;22.32;53.23;101301.81;5129313;27;20074;-39
2022/07/01 06:11:11;;;;;;;0.10;0.10;;;;;;;22.32;52.89;101296.25;5131117;28;20051;-39
2022/07/01 06:13:36;;;;;;;0.10;0.10;;;;;;;22.32;52.84;101303.78;5131367;27;20051;-40
2022/07/01 06:16:02;;;;;;;0.10;0.10;;;;;;;22.31;53.09;101305.72;5131628;27;20103;-39
2022/07/01 06:18:28;;;;;;;0.10;0.10;;;;;;;22.32;53.31;101304.59;5110180;28;20039;-40
2022/07/01 06:20:54;;;;;;;0.10;0.10;;;;;;;22.33;53.24;101305.44;5130271;27;20051;-39
2022/07/01 06:23:19;;;;;;;0.10;0.10;;;;;;;22.32;52.89;101314.88;5130049;27;20053;-39
2022/07/01 06:25:45;;;;;;;0.10;0.10;;;;;;;22.31;52.86;101316.81;5131210;28;20054;-39
2022/07/01 06:28:11;;;;;;;0.10;0.10;;;;;;;22.32;53.21;101317.63;5129584;27;20401;-39
2022/07/01 06:30:37;;;;;;;0.10;0.10;;;;;;;22.31;53.23;101316.81;5130412;27;20051;-39
2022/07/01 06:33:02;;;;;;;0.10;0.10;;;;;;;22.33;53.08;101341.50;5129223;28;20047;-40
2022/07/01 06:35:28;;;;;;;0.10;0.10;;;;;;;22.32;53.10;101350.94;5130083;27;20051;-41
2022/07/01 06:37:54;;;;;;;0.10;0.10;;;;;;;22.31;52.90;101336.25;5129977;28;20385;-41
2022/07/01 06:40:25;;;;;;;0.10;0.10;;;;;;;22.31;52.90;101335.41;5132716;27;20043;-40
2022/07/01 06:42:50;;;;;;;0.10;0.10;;;;;;;22.31;53.00;101335.41;5129570;28;20039;-37
2022/07/01 06:45:16;;;;;;;0.10;0.10;;;;;;;22.31;53.00;101335.41;5130704;27;20043;-39
2022/07/01 06:47:42;;;;;;;0.10;0.10;;;;;;;22.31;52.99;101344.56;5108786;28;20043;-41
2022/07/01 06:50:08;;;;;;;0.10;0.10;;;;;;;22.31;52.95;101347.34;5130111;27;20047;-39
2022/07/01 06:52:34;;;;;;;0.10;0.10;;;;;;;22.31;52.79;101346.50;5129799;27;20043;-40
2022/07/01 06:55:00;;;;;;;0.10;0.10;;;;;;;22.31;52.93;101364.00;5132470;27;20458;-40
2022/07/01 06:57:27;;;;;;;0.10;0.10;;;;;;;22.31;52.79;101357.63;5129601;28;20078;-38
2022/07/01 06:59:52;;;;;;;0.10;0.10;;;;;;;22.30;52.95;101356.78;5130528;27;20126;-40
2022/07/01 07:02:18;;;;;;;0.10;0.10;;;;;;;22.30;53.05;101359.56;5129283;28;20043;-39
2022/07/01 07:04:44;;;;;;;0.10;0.10;;;;;;;22.30;52.94;101359.56;5129194;28;20054;-39
2022/07/01 07:07:27;;;;;;;0.10;0.10;;;;;;;22.30;53.29;101370.66;5129879;28;20083;-39
2022/07/01 07:09:53;;;;;;;0.10;0.10;;;;;;;22.29;52.77;101367.06;5130337;27;20047;-39
2022/07/01 07:12:19;;;;;;;0.10;0.10;;;;;;;22.29;52.87;101369.84;5129879;28;20039;-39
2022/07/01 07:14:44;;;;;;;0.10;0.10;;;;;;;22.30;52.90;101376.22;5128814;27;20043;-40
2022/07/01 07:17:10;;;;;;;0.10;0.10;;;;;;;22.30;53.04;101384.53;5127722;27;20387;-40
2022/07/01 07:19:36;;;;;;;0.10;0.10;;;;;;;22.29;52.92;101375.38;5129294;27;20111;-38
2022/07/01 07:22:01;;;;;;;0.10;0.10;;;;;;;22.31;53.40;101371.47;5130269;28;20447;-40
2022/07/01 07:24:27;;;;;;;0.10;0.10;;;;;;;22.31;52.95;101360.38;5130483;27;20050;-39
2022/07/01 07:26:53;;;;;;;0.10;0.10;;;;;;;22.30;53.26;101365.13;5128446;28;20051;-39
2022/07/01 07:29:18;;;;;;;0.10;0.10;;;;;;;22.31;53.65;101365.94;5129387;27;20051;-38
2022/07/01 07:31:44;;;;;;;0.10;0.10;;;;;;;22.30;52.96;101376.22;5133271;27;20134;-41
2022/07/01 07:34:10;;;;;;;0.10;0.10;;;;;;;22.30;53.30;101362.34;5134120;27;20043;-41
2022/07/01 07:36:36;;;;;;;0.10;0.10;;;;;;;22.31;53.08;101368.72;5133304;27;20046;-39
2022/07/01 07:39:01;;;;;;;0.10;0.10;;;;;;;22.30;53.34;101376.22;5131854;28;20047;-39
2022/07/01 07:41:27;;;;;;;0.10;0.10;;;;;;;22.29;53.31;101363.47;5114626;28;20044;-40
2022/07/01 07:43:53;;;;;;;0.10;0.10;;;;;;;22.29;53.37;101367.06;5133564;27;20043;-40
2022/07/01 07:46:18;;;;;;;0.10;0.10;;;;;;;22.29;52.78;101377.34;5133816;28;20260;-41
2022/07/01 07:48:44;;;;;;;0.10;0.10;;;;;;;22.30;52.83;101387.31;5135263;27;20058;-41
2022/07/01 07:51:14;;;;;;;0.10;0.10;;;;;;;22.31;53.38;101390.91;5133589;27;20533;-40
2022/07/01 07:53:39;;;;;;;0.10;0.10;;;;;;;22.30;53.57;101398.41;5114705;27;20487;-40
2022/07/01 07:56:05;;;;;;;0.10;0.10;;;;;;;22.30;53.48;101387.31;5133438;28;20143;-39
2022/07/01 07:58:31;;;;;;;0.20;0.20;;;;;;;22.31;53.29;101393.69;5133198;27;20532;-39
2022/07/01 08:00:56;;;;;;;0.10;0.10;;;;;;;22.30;52.94;101406.72;5113681;28;20485;-39
2022/07/01 08:03:22;;;;;;;0.10;0.10;;;;;;;22.29;53.27;101402.31;5133669;27;20039;-40
2022/07/01 08:05:48;;;;;;;0.10;0.10;;;;;;;22.30;53.36;101406.72;5133375;28;20390;-39
2022/07/01 08:08:13;;;;;;;0.10;0.10;;;;;;;22.29;53.23;101410.63;5135878;27;20139;-40
2022/07/01 08:10:39;;;;;;;0.10;0.10;;;;;;;22.30;53.07;101412.28;5131663;27;20393;-40
2022/07/01 08:13:05;;;;;;;0.10;0.10;;;;;;;22.30;53.41;101406.72;5131821;28;20061;-38
2022/07/01 08:15:32;;;;;;;0.10;0.10;;;;;;;22.29;53.37;101411.47;5133558;28;20074;-39
2022/07/01 08:17:58;;;;;;;0.10;0.10;;;;;;;22.28;52.94;101412.59;5111988;27;20073;-40
2022/07/01 08:20:23;;;;;;;0.10;0.10;;;;;;;22.29;53.26;101418.97;5132577;28;20047;-40
2022/07/01 08:22:49;;;;;;;0.10;0.10;;;;;;;22.29;52.96;101417.00;5131998;27;20043;-40
2022/07/01 08:25:15;;;;;;;0.10;0.10;;;;;;;22.29;53.16;101410.63;5132007;27;20043;-38
2022/07/01 08:27:40;;;;;;;0.10;0.10;;;;;;;22.29;53.04;101416.19;5133020;27;20395;-39
2022/07/01 08:30:07;;;;;;;0.10;0.10;;;;;;;22.30;53.12;101415.06;5132000;28;20462;-39
2022/07/01 08:32:33;;;;;;;0.10;0.10;;;;;;;22.30;53.27;101415.06;5132346;28;20070;-40
2022/07/01 08:34:58;;;;;;;0.10;0.10;;;;;;;22.29;52.94;101419.78;5131515;27;20401;-38
2022/07/01 08:37:24;;;;;;;0.10;0.10;;;;;;;22.28;52.86;101423.69;5131611;28;20039;-39
2022/07/01 08:39:50;;;;;;;0.10;0.10;;;;;;;22.28;53.03;101418.13;5132149;27;20099;-37
2022/07/01 08:42:16;;;;;;;0.10;0.10;;;;;;;22.28;52.84;101423.69;5131204;27;20382;-39
2022/07/01 08:44:42;;;;;;;0.10;0.10;;;;;;;22.29;52.78;101424.50;5132706;28;20082;-39
2022/07/01 08:47:12;;;;;;;0.10;0.10;;;;;;;22.28;52.85;101422.84;5128829;27;20051;-40
2022/07/01 08:49:38;;;;;;;0.10;0.10;;;;;;;22.28;52.85;101432.00;5112452;28;20134;-41
2022/07/01 08:52:03;;;;;;;0.10;0.10;;;;;;;22.29;52.78;101433.66;5132523;27;20054;-41
2022/07/01 08:54:29;;;;;;;0.10;0.10;;;;;;;22.28;52.81;101426.47;5131912;27;20050;-40
2022/07/01 08:56:55;;;;;;;0.10;0.10;;;;;;;22.28;53.01;101440.31;5131023;28;20043;-40
2022/07/01 08:59:24;;;;;;;0.10;0.10;;;;;;;22.28;52.77;101448.66;5132324;28;20047;-38
2022/07/01 09:02:04;;;;;;;0.10;0.10;;;;;;;22.31;53.02;101454.72;5113673;28;20093;-40
2022/07/01 09:04:30;;;;;;;0.10;0.10;;;;;;;22.28;52.84;101450.59;5132620;27;20043;-41
2022/07/01 09:07:02;;;;;;;0.10;0.10;;;;;;;22.28;53.07;101459.75;5131134;28;20057;-41
2022/07/01 09:09:28;;;;;;;0.10;0.10;;;;;;;22.28;53.30;101456.97;5096383;28;20477;-40
2022/07/01 09:11:54;;;;;;;0.10;0.10;;;;;;;22.27;52.89;101446.97;5132059;27;20043;-39
2022/07/01 09:14:26;;;;;;;0.10;0.10;;;;;;;22.28;52.99;101456.97;5131428;27;20035;-40
2022/07/01 09:16:57;;;;;;;0.10;0.10;;;;;;;22.29;53.24;101453.06;5128367;28;20180;-39
2022/07/01 09:19:25;;;;;;;0.10;0.10;;;;;;;22.28;52.99;101451.44;5115248;28;20042;-39
2022/07/01 09:21:53;;;;;;;0.10;0.10;;;;;;;22.28;53.03;101451.44;5098035;28;20126;-41
2022/07/01 09:29:44;;;;;;;0.10;0.10;;;;;;;22.27;53.31;101451.69;5169302;27;20113;-40
2022/07/01 09:32:12;;;;;;;0.10;0.10;;;;;;;22.27;53.12;101458.06;5167921;27;20130;-39
2022/07/01 09:34:42;;;;;;;0.10;0.10;;;;;;;22.28;52.84;101447.81;5148526;27;20046;-40
2022/07/01 09:37:11;;;;;;;0.10;0.10;;;;;;;22.28;53.15;101445.06;5166241;27;20492;-40
2022/07/01 09:39:57;;;;;;;0.10;0.10;;;;;;;22.30;53.07;101453.91;5144924;27;20080;-42
2022/07/01 09:42:25;;;;;;;0.10;0.10;;;;;;;22.30;52.95;101456.69;5140340;27;20131;-40
2022/07/01 09:45:09;;;;;;;0.10;0.10;;;;;;;22.29;53.01;101455.03;5127754;27;20478;-39
2022/07/01 09:47:36;;;;;;;0.10;0.10;;;;;;;22.28;52.99;101462.53;5125678;27;20129;-41
2022/07/01 09:50:04;;;;;;;0.10;0.10;;;;;;;22.27;52.81;101457.25;5147074;27;20075;-40
2022/07/01 09:52:29;;;;;;;0.10;0.10;;;;;;;22.29;52.94;101460.56;5128098;27;20134;-40
2022/07/01 09:55:04;;;;;;;0.10;0.10;;;;;;;22.27;53.05;101460.84;5145253;27;20047;-39
2022/07/01 09:57:30;;;;;;;0.10;0.10;;;;;;;22.28;53.13;101468.06;5144972;27;20055;-39
2022/07/01 09:59:55;;;;;;;0.10;0.10;;;;;;;22.28;52.90;101467.25;5145413;27;20112;-39
2022/07/01 10:02:21;;;;;;;0.10;0.10;;;;;;;22.28;52.90;101458.94;5145477;27;20043;-39
2022/07/01 10:04:53;;;;;;;0.10;0.10;;;;;;;22.27;52.92;101463.63;5146476;27;20042;-39
2022/07/01 10:07:58;;;;;;;0.10;0.10;;;;;;;22.28;52.88;101464.47;5143977;27;20126;-39
2022/07/01 10:10:36;;;;;;;0.10;0.10;;;;;;;22.27;53.03;101460.03;5118115;27;20089;-39
2022/07/01 10:13:02;;;;;;;0.10;0.10;;;;;;;22.27;53.21;101460.84;5145439;27;20076;-40
2022/07/01 10:15:28;;;;;;;0.10;0.10;;;;;;;22.29;53.30;101463.34;5146663;27;20042;-42
2022/07/01 10:17:54;;;;;;;0.10;0.10;;;;;;;22.26;52.87;101458.38;5142726;27;20126;-40
2022/07/01 10:20:25;;;;;;;0.10;0.10;;;;;;;22.27;52.98;101458.06;5145892;27;20051;-42
2022/07/01 10:23:00;;;;;;;0.20;0.20;;;;;;;22.27;53.03;101452.53;5109448;27;20070;-40
2022/07/01 10:25:30;;;;;;;0.10;0.10;;;;;;;22.28;52.87;101456.97;5143864;27;20127;-41
2022/07/01 10:28:24;;;;;;;0.10;0.10;;;;;;;22.26;53.08;101459.19;5110229;27;20477;-40
2022/07/01 10:30:51;;;;;;;0.10;0.10;;;;;;;22.28;53.03;101470.03;5130984;27;20109;-40
2022/07/01 10:33:38;;;;;;;0.10;0.10;;;;;;;22.27;53.01;101466.41;5118872;27;20071;-41
2022/07/01 10:36:07;;;;;;;0.10;0.10;;;;;;;22.27;53.10;101465.56;5112801;27;20167;-41
2022/07/01 10:38:33;;;;;;;0.10;0.10;;;;;;;22.26;52.86;101461.97;5125728;27;20074;-41
2022/07/01 10:41:09;;;;;;;0.10;0.10;;;;;;;22.26;52.92;101459.19;5113892;28;20430;-41
2022/07/01 10:43:36;;;;;;;0.10;0.10;;;;;;;22.27;53.04;101457.25;5131079;28;20074;-41
2022/07/01 10:46:03;;;;;;;0.10;0.10;;;;;;;22.27;53.20;101451.69;5113420;28;20119;-41
2022/07/01 10:48:31;;;;;;;0.10;0.10;;;;;;;22.27;52.88;101452.53;5129644;28;20051;-41
2022/07/01 10:50:57;;;;;;;0.10;0.10;;;;;;;22.27;52.99;101462.78;5113704;28;20134;-41
2022/07/01 10:53:23;;;;;;;0.10;0.10;;;;;;;22.28;53.23;101458.94;5130287;28;20192;-41
2022/07/01 10:55:51;;;;;;;0.10;0.10;;;;;;;22.28;53.30;101451.44;5128827;28;20536;-41
2022/07/01 10:58:38;;;;;;;0.10;0.10;;;;;;;22.27;53.01;101463.63;5127906;28;20039;-40
2022/07/01 11:01:04;;;;;;;0.10;0.10;;;;;;;22.28;52.80;101464.47;5096190;28;20409;-41
2022/07/01 11:03:34;;;;;;;0.10;0.10;;;;;;;22.27;52.98;101446.16;5130112;28;20135;-39
2022/07/01 11:06:00;;;;;;;0.10;0.10;;;;;;;22.27;52.95;101452.53;5112891;28;20046;-39
2022/07/01 11:08:26;;;;;;;0.10;0.10;;;;;;;22.27;52.89;101446.97;5112236;28;20135;-41
2022/07/01 11:10:59;;;;;;;0.10;0.10;;;;;;;22.27;53.19;101444.19;5130390;28;20043;-39
2022/07/01 11:13:26;;;;;;;0.10;0.10;;;;;;;22.26;52.94;101445.31;5112719;28;20077;-41
2022/07/01 11:15:51;;;;;;;0.10;0.10;;;;;;;22.27;52.80;101448.91;5112929;28;20071;-39
2022/07/01 11:18:18;;;;;;;0.10;0.10;;;;;;;22.27;52.94;101446.97;5128499;28;20054;-40
2022/07/01 11:20:44;;;;;;;0.10;0.10;;;;;;;22.27;52.99;101446.16;5113997;28;20047;-39
2022/07/01 11:23:10;;;;;;;0.10;0.10;;;;;;;22.28;53.17;101442.28;5129987;28;20632;-40
2022/07/01 11:25:36;;;;;;;0.10;0.10;;;;;;;22.26;52.87;101433.41;5130911;28;20074;-40
2022/07/01 11:28:02;;;;;;;0.10;0.10;;;;;;;22.27;52.85;101446.16;5130073;28;20555;-40
2022/07/01 11:30:27;;;;;;;0.10;0.10;;;;;;;22.27;52.95;101437.81;5130872;28;20039;-40
2022/07/01 11:32:56;;;;;;;0.10;0.10;;;;;;;22.27;52.78;101432.28;5129369;28;20456;-40
2022/07/01 11:41:03;;;;;;;0.10;0.10;;;;;;;22.25;52.97;101427.03;5087521;28;20090;-39